Time;durP1;ratioP1;P1;durP2;ratioP2;P2;SDS_P1;SDS_P2;PMS_P1;PMS_P2;Temp;Humidity;BMP_temperature;BMP_pressure;BME280_temperature;BME280_humidity;BME280_pressure;Samples;Min_cycle;Max_cycle;Signal;HPM_P1;HPM_P2
2023/09/01 00:01:16;;;;;;;2.75;1.00;;;;;;;17.67;67.04;100863.66;5028048;27;98858;-65
2023/09/01 00:03:43;;;;;;;3.50;0.90;;;;;;;17.64;67.24;100871.00;5029308;27;98091;-65
2023/09/01 00:06:13;;;;;;;2.60;1.13;;;;;;;17.43;67.91;100873.16;5028300;27;96828;-65
2023/09/01 00:08:40;;;;;;;3.42;1.00;;;;;;;17.56;67.82;100865.25;5029930;27;96838;-65
2023/09/01 00:11:06;;;;;;;1.15;0.98;;;;;;;17.58;67.50;100866.03;5025477;27;99466;-65
2023/09/01 00:13:33;;;;;;;1.42;0.85;;;;;;;17.61;67.31;100874.72;5024385;27;100553;-65
2023/09/01 00:16:00;;;;;;;1.70;1.02;;;;;;;17.38;68.01;100873.47;5024822;27;97716;-64
2023/09/01 00:18:27;;;;;;;1.88;1.00;;;;;;;17.21;68.61;100870.09;5025509;27;99781;-64
2023/09/01 00:20:58;;;;;;;2.28;1.05;;;;;;;17.44;67.91;100869.53;5026745;27;98213;-66
2023/09/01 00:23:25;;;;;;;1.80;1.20;;;;;;;17.35;68.61;100870.09;5027405;27;99374;-65
2023/09/01 00:25:53;;;;;;;2.55;1.08;;;;;;;17.48;67.54;100869.25;5024660;27;98664;-65
2023/09/01 00:28:19;;;;;;;4.68;1.33;;;;;;;17.25;68.42;100874.31;5024092;27;96756;-66
2023/09/01 00:30:53;;;;;;;5.38;1.15;;;;;;;17.44;68.32;100872.22;5026345;27;98861;-65
2023/09/01 00:33:22;;;;;;;3.58;1.20;;;;;;;17.38;68.41;100891.28;5019294;27;98793;-66
2023/09/01 00:35:50;;;;;;;2.88;0.95;;;;;;;17.52;67.44;100885.97;5029369;27;97722;-65
2023/09/01 00:38:17;;;;;;;2.20;1.23;;;;;;;17.43;67.66;100882.03;5024056;27;96983;-65
2023/09/01 00:40:43;;;;;;;4.28;1.25;;;;;;;17.37;68.01;100884.22;5023732;27;97977;-65
2023/09/01 00:43:12;;;;;;;4.13;1.10;;;;;;;17.19;68.63;100880.88;5029965;27;99148;-66
2023/09/01 00:45:38;;;;;;;1.98;1.20;;;;;;;17.22;68.81;100877.16;5027319;27;97306;-65
2023/09/01 00:48:07;;;;;;;2.03;0.90;;;;;;;17.27;68.64;100872.38;5027700;27;97235;-64
2023/09/01 00:50:36;;;;;;;1.63;1.40;;;;;;;17.40;68.01;100884.03;5028225;27;98919;-64
2023/09/01 00:53:05;;;;;;;3.72;1.30;;;;;;;17.40;67.78;100890.22;5027800;27;99227;-64
2023/09/01 00:55:32;;;;;;;2.45;1.25;;;;;;;17.23;68.42;100878.88;5022964;27;97093;-64
2023/09/01 00:58:00;;;;;;;6.43;1.30;;;;;;;17.27;68.56;100880.38;5022771;27;97796;-65
2023/09/01 01:00:27;;;;;;;3.17;1.55;;;;;;;17.13;69.29;100882.09;5026158;27;99324;-64
2023/09/01 01:02:53;;;;;;;3.30;1.30;;;;;;;17.26;68.53;100876.03;5026376;27;99389;-64
2023/09/01 01:05:27;;;;;;;1.95;1.20;;;;;;;17.20;69.00;100879.06;5025486;27;97263;-64
2023/09/01 01:08:05;;;;;;;2.17;1.15;;;;;;;17.13;69.35;100874.06;5028495;27;96936;-64
2023/09/01 01:10:39;;;;;;;1.85;1.10;;;;;;;17.28;68.28;100871.44;5025573;27;101045;-64
2023/09/01 01:13:10;;;;;;;1.88;1.13;;;;;;;17.11;68.89;100878.66;5024819;27;99216;-64
2023/09/01 01:15:38;;;;;;;2.88;1.33;;;;;;;17.09;68.89;100880.56;5026046;27;96852;-64
2023/09/01 01:18:09;;;;;;;3.08;1.08;;;;;;;17.11;69.21;100877.81;5028537;27;97209;-63
2023/09/01 01:20:39;;;;;;;3.08;1.48;;;;;;;17.22;68.48;100882.50;5021564;27;97729;-64
2023/09/01 01:23:14;;;;;;;4.07;1.25;;;;;;;17.09;68.77;100885.91;5028948;27;99354;-64
2023/09/01 01:25:46;;;;;;;5.75;1.33;;;;;;;16.88;69.35;100873.84;5027892;27;96769;-64
2023/09/01 01:28:12;;;;;;;2.45;1.38;;;;;;;16.93;69.32;100886.94;5026079;27;97019;-64
2023/09/01 01:30:39;;;;;;;1.95;1.20;;;;;;;17.12;68.82;100882.19;5023711;27;98942;-62
2023/09/01 01:33:19;;;;;;;1.55;1.25;;;;;;;17.02;69.15;100886.34;5026063;27;99405;-64
2023/09/01 01:35:53;;;;;;;2.17;1.35;;;;;;;17.06;69.13;100882.56;5023679;27;97539;-65
2023/09/01 01:38:24;;;;;;;2.72;1.70;;;;;;;16.85;69.68;100879.38;5019602;27;97531;-65
2023/09/01 01:40:53;;;;;;;4.00;1.77;;;;;;;16.85;69.75;100876.69;5022456;27;101890;-65
2023/09/01 01:43:24;;;;;;;1.65;1.10;;;;;;;16.92;69.76;100872.72;5017320;27;98904;-65
2023/09/01 01:45:51;;;;;;;3.53;1.50;;;;;;;16.69;70.14;100870.53;5024649;27;96897;-65
2023/09/01 01:48:17;;;;;;;2.30;1.38;;;;;;;16.87;69.89;100872.09;5026875;27;97006;-65
2023/09/01 01:50:44;;;;;;;3.03;1.55;;;;;;;16.84;69.91;100872.31;5020171;27;98855;-65
2023/09/01 01:53:10;;;;;;;2.45;1.25;;;;;;;16.72;70.61;100873.91;5021306;27;99183;-65
2023/09/01 01:55:38;;;;;;;5.28;1.60;;;;;;;16.88;70.04;100870.31;5026884;27;97401;-64
2023/09/01 01:58:05;;;;;;;3.30;1.20;;;;;;;16.91;69.69;100871.00;5023989;27;98669;-64
2023/09/01 02:00:32;;;;;;;6.03;1.65;;;;;;;16.87;69.57;100882.78;5021405;27;100854;-65
2023/09/01 02:02:59;;;;;;;3.08;1.50;;;;;;;16.98;69.46;100877.69;5024804;27;99231;-65
2023/09/01 02:05:26;;;;;;;2.08;1.45;;;;;;;17.01;69.31;100880.16;5022619;27;98013;-66
2023/09/01 02:07:52;;;;;;;4.40;1.60;;;;;;;16.75;70.16;100880.84;5021693;27;98709;-64
2023/09/01 02:10:19;;;;;;;3.80;1.70;;;;;;;16.89;69.26;100872.88;5022700;27;98876;-64
2023/09/01 02:12:47;;;;;;;1.88;1.55;;;;;;;16.83;69.86;100873.25;5022724;27;98938;-65
2023/09/01 02:15:13;;;;;;;2.63;1.58;;;;;;;16.80;70.45;100881.47;5019007;27;98573;-65
2023/09/01 02:17:40;;;;;;;2.83;1.65;;;;;;;16.86;70.00;100881.09;5025368;27;96897;-65
2023/09/01 02:20:16;;;;;;;5.82;1.52;;;;;;;16.83;69.65;100877.72;5023852;27;98847;-66
2023/09/01 02:22:43;;;;;;;4.80;1.60;;;;;;;16.96;69.48;100881.38;5023604;27;98828;-64
2023/09/01 02:25:09;;;;;;;3.80;1.67;;;;;;;16.87;69.82;100880.13;5022918;27;96853;-66
2023/09/01 02:27:39;;;;;;;4.32;1.60;;;;;;;16.80;69.57;100878.78;5024502;27;96944;-65
2023/09/01 02:30:08;;;;;;;4.00;1.42;;;;;;;16.90;69.20;100876.41;5019414;27;98237;-64
2023/09/01 02:32:34;;;;;;;2.20;1.48;;;;;;;16.86;69.57;100878.44;5020331;27;97592;-65
2023/09/01 02:35:05;;;;;;;3.13;1.63;;;;;;;16.75;69.69;100872.84;5019886;27;98879;-65
2023/09/01 02:37:32;;;;;;;3.42;1.98;;;;;;;16.67;70.06;100880.47;5022868;27;96770;-64
2023/09/01 02:39:58;;;;;;;4.75;1.75;;;;;;;16.66;70.12;100882.28;5022451;27;99367;-65
2023/09/01 02:42:24;;;;;;;14.13;3.50;;;;;;;16.74;70.01;100884.47;5024618;27;98893;-65
2023/09/01 02:44:52;;;;;;;5.80;2.00;;;;;;;16.63;70.19;100886.91;5022814;27;96930;-64
2023/09/01 02:47:19;;;;;;;6.13;2.03;;;;;;;16.72;70.20;100889.91;5019831;27;97784;-64
2023/09/01 02:49:46;;;;;;;5.13;1.80;;;;;;;16.67;70.26;100893.81;5023172;27;102218;-65
2023/09/01 02:52:12;;;;;;;5.35;1.60;;;;;;;16.56;70.57;100891.69;5022535;27;98169;-64
2023/09/01 02:54:39;;;;;;;6.43;1.80;;;;;;;16.69;69.94;100897.22;5022419;27;99106;-65
2023/09/01 02:57:05;;;;;;;3.70;1.90;;;;;;;16.46;70.85;100890.53;5025967;27;100761;-64
2023/09/01 02:59:32;;;;;;;7.05;2.10;;;;;;;16.67;70.44;100896.47;5022622;27;99253;-65
2023/09/01 03:01:58;;;;;;;2.38;1.55;;;;;;;16.57;70.53;100898.75;5023772;27;98893;-64
2023/09/01 03:04:26;;;;;;;7.45;2.50;;;;;;;16.58;70.71;100894.28;5025279;27;96834;-65
2023/09/01 03:06:53;;;;;;;3.78;2.00;;;;;;;16.45;71.03;100895.94;5022353;27;96800;-65
2023/09/01 03:09:20;;;;;;;3.10;1.85;;;;;;;16.55;71.14;100899.78;5025503;27;98091;-65
2023/09/01 03:11:46;;;;;;;2.38;1.90;;;;;;;16.58;70.57;100907.63;5025650;27;99036;-65
2023/09/01 03:14:12;;;;;;;2.38;2.08;;;;;;;16.47;71.39;100900.25;5025017;27;97936;-66
2023/09/01 03:16:39;;;;;;;4.60;2.00;;;;;;;16.47;71.39;100902.06;5023692;27;96811;-65
2023/09/01 03:19:05;;;;;;;3.13;1.83;;;;;;;16.50;70.49;100904.53;5026218;27;98160;-66
2023/09/01 03:21:33;;;;;;;3.17;2.20;;;;;;;16.41;70.85;100907.75;5027144;27;101310;-64
2023/09/01 03:24:00;;;;;;;5.15;2.00;;;;;;;16.41;71.08;100908.56;5027239;27;96811;-65
2023/09/01 03:26:29;;;;;;;4.47;2.13;;;;;;;16.41;71.37;100903.25;5021876;27;97482;-65
2023/09/01 03:28:55;;;;;;;5.00;2.00;;;;;;;16.48;70.91;100907.28;5026564;27;99007;-64
2023/09/01 03:31:22;;;;;;;4.40;2.08;;;;;;;16.57;70.43;100908.56;5025571;27;98847;-64
2023/09/01 03:33:48;;;;;;;2.88;2.25;;;;;;;16.37;71.13;100909.72;5025155;27;97894;-64
2023/09/01 03:36:15;;;;;;;5.15;2.28;;;;;;;16.33;71.48;100911.72;5021033;27;97578;-66
2023/09/01 03:38:43;;;;;;;4.05;2.30;;;;;;;16.34;71.24;100912.56;5026687;27;99584;-64
2023/09/01 03:41:09;;;;;;;4.90;2.10;;;;;;;16.16;71.96;100903.78;5021502;27;98734;-64
2023/09/01 03:43:36;;;;;;;5.95;2.20;;;;;;;16.23;71.73;100907.81;5020070;27;97782;-64
2023/09/01 03:46:03;;;;;;;4.63;2.38;;;;;;;16.34;71.21;100901.91;5021204;27;96759;-64
2023/09/01 03:48:29;;;;;;;4.80;2.60;;;;;;;16.19;71.61;100908.94;5023717;27;98085;-64
2023/09/01 03:51:06;;;;;;;7.80;3.00;;;;;;;16.39;71.31;100909.63;5023619;27;98725;-66
2023/09/01 03:53:33;;;;;;;7.78;2.53;;;;;;;16.37;71.08;100917.72;5022376;27;97081;-65
2023/09/01 03:56:01;;;;;;;3.45;2.17;;;;;;;16.31;71.17;100907.41;5017923;27;98961;-64
2023/09/01 03:58:28;;;;;;;5.50;2.63;;;;;;;16.03;71.77;100908.06;5024744;27;99067;-64
2023/09/01 04:00:54;;;;;;;4.47;2.28;;;;;;;16.10;71.46;100913.94;5025266;27;98067;-64
2023/09/01 04:03:21;;;;;;;2.78;2.00;;;;;;;16.46;70.04;100905.66;5025163;27;96866;-65
2023/09/01 04:05:47;;;;;;;7.40;2.70;;;;;;;16.16;71.65;100911.78;5015936;27;96971;-65
2023/09/01 04:08:14;;;;;;;7.28;2.10;;;;;;;16.25;70.94;100913.94;5026658;27;101427;-66
2023/09/01 04:10:40;;;;;;;3.40;2.45;;;;;;;16.07;71.80;100914.09;5024225;27;98132;-65
2023/09/01 04:13:08;;;;;;;7.55;2.38;;;;;;;16.19;71.68;100913.44;5027184;27;96998;-65
2023/09/01 04:15:34;;;;;;;4.63;2.80;;;;;;;16.21;70.60;100917.69;5024738;27;97366;-65
2023/09/01 04:18:00;;;;;;;5.68;2.78;;;;;;;16.25;70.43;100923.75;5024377;27;98363;-65
2023/09/01 04:20:27;;;;;;;4.15;2.70;;;;;;;16.01;70.97;100923.31;5029033;27;98811;-65
2023/09/01 04:22:53;;;;;;;5.57;2.95;;;;;;;16.15;70.96;100918.06;5027526;27;97495;-64
2023/09/01 04:25:20;;;;;;;4.13;2.45;;;;;;;15.82;71.30;100917.25;5020380;27;97028;-65
2023/09/01 04:27:46;;;;;;;4.65;2.42;;;;;;;16.01;71.25;100925.13;5023366;27;99150;-65
2023/09/01 04:30:14;;;;;;;3.70;2.92;;;;;;;15.95;70.94;100929.81;5022955;27;99267;-65
2023/09/01 04:32:44;;;;;;;5.95;2.72;;;;;;;15.87;71.23;100929.41;5022107;27;99604;-64
2023/09/01 04:35:10;;;;;;;6.07;2.65;;;;;;;16.09;70.57;100922.88;5025699;27;98909;-64
2023/09/01 04:37:37;;;;;;;4.45;2.80;;;;;;;16.11;70.72;100929.84;5023435;27;99717;-65
2023/09/01 04:40:06;;;;;;;4.03;2.40;;;;;;;16.07;70.08;100930.09;5028008;27;99251;-64
2023/09/01 04:42:32;;;;;;;4.95;2.80;;;;;;;16.12;69.87;100930.69;5026398;27;97147;-65
2023/09/01 04:44:59;;;;;;;7.85;3.65;;;;;;;16.21;69.92;100939.03;5021871;27;96932;-67
2023/09/01 04:47:27;;;;;;;4.15;2.97;;;;;;;16.06;69.99;100929.25;5023921;27;102904;-64
2023/09/01 04:49:54;;;;;;;3.83;2.55;;;;;;;16.26;69.95;100938.81;5027538;27;99296;-65
2023/09/01 04:52:20;;;;;;;6.25;3.22;;;;;;;16.40;68.91;100933.56;5024053;27;96893;-66
2023/09/01 04:54:47;;;;;;;7.80;3.08;;;;;;;16.42;68.21;100941.44;5027960;27;96966;-65
2023/09/01 04:57:13;;;;;;;8.63;4.38;;;;;;;16.49;68.30;100932.16;5029364;27;99448;-64
2023/09/01 04:59:39;;;;;;;5.78;3.10;;;;;;;16.58;68.24;100931.63;5029377;27;100838;-65
2023/09/01 05:02:06;;;;;;;5.25;3.30;;;;;;;16.70;67.36;100938.97;5023937;27;97131;-65
2023/09/01 05:04:34;;;;;;;5.00;2.83;;;;;;;16.82;67.02;100940.91;5029446;27;97848;-65
2023/09/01 05:07:00;;;;;;;6.78;2.55;;;;;;;16.88;66.37;100940.56;5028831;27;99857;-65
2023/09/01 05:09:27;;;;;;;4.75;2.40;;;;;;;16.80;66.99;100934.84;5026371;27;98906;-64
2023/09/01 05:11:53;;;;;;;5.68;3.88;;;;;;;16.75;66.95;100934.22;5026460;27;96954;-65
2023/09/01 05:14:20;;;;;;;6.13;3.13;;;;;;;16.85;66.81;100946.09;5029885;27;97047;-67
2023/09/01 05:16:46;;;;;;;9.35;2.78;;;;;;;17.09;65.86;100941.09;5028632;27;98995;-65
2023/09/01 05:19:14;;;;;;;3.58;2.50;;;;;;;17.00;65.98;100939.00;5025315;27;98877;-65
2023/09/01 05:21:41;;;;;;;5.95;3.13;;;;;;;16.98;65.76;100941.75;5024387;27;97341;-65
2023/09/01 05:24:09;;;;;;;5.65;2.42;;;;;;;16.98;65.91;100944.41;5026637;27;97824;-64
2023/09/01 05:26:35;;;;;;;5.43;2.58;;;;;;;17.14;65.49;100942.56;5029820;27;99292;-65
2023/09/01 05:29:02;;;;;;;5.63;2.65;;;;;;;17.19;65.01;100938.75;5028256;27;99216;-65
2023/09/01 05:31:29;;;;;;;5.32;2.50;;;;;;;17.16;65.27;100941.59;5024590;27;96875;-66
2023/09/01 05:33:55;;;;;;;2.30;2.10;;;;;;;17.28;65.08;100948.88;5021475;27;96885;-64
2023/09/01 05:36:22;;;;;;;6.03;2.50;;;;;;;17.14;65.12;100947.03;5025682;27;99243;-65
2023/09/01 05:38:49;;;;;;;5.03;2.58;;;;;;;17.22;65.02;100946.56;5022526;27;99090;-64
2023/09/01 05:41:16;;;;;;;5.53;2.88;;;;;;;17.45;64.55;100956.75;5019310;27;96884;-64
2023/09/01 05:43:43;;;;;;;4.55;2.60;;;;;;;17.31;64.71;100964.72;5022744;27;96969;-65
2023/09/01 05:46:10;;;;;;;6.32;2.63;;;;;;;17.30;64.56;100955.84;5022073;27;97900;-65
2023/09/01 05:48:37;;;;;;;7.05;2.58;;;;;;;17.31;64.66;100951.38;5020558;27;99157;-64
2023/09/01 05:51:04;;;;;;;3.65;2.35;;;;;;;17.67;63.92;100964.34;5022891;27;96792;-64
2023/09/01 05:53:30;;;;;;;5.50;2.97;;;;;;;17.66;63.26;100959.94;5027380;27;96797;-65
2023/09/01 05:55:58;;;;;;;5.20;2.95;;;;;;;17.33;64.60;100963.66;5023808;27;97652;-64
2023/09/01 05:58:24;;;;;;;4.40;2.85;;;;;;;17.54;64.75;100962.38;5022034;27;97828;-64
2023/09/01 06:00:51;;;;;;;6.13;2.28;;;;;;;17.86;63.17;100975.59;5023300;27;97912;-64
2023/09/01 06:03:20;;;;;;;3.17;2.70;;;;;;;17.90;63.11;100977.16;5016980;27;98135;-65
2023/09/01 06:05:47;;;;;;;4.63;2.50;;;;;;;18.05;62.70;100981.53;5024199;27;99727;-65
2023/09/01 06:08:13;;;;;;;3.45;2.60;;;;;;;17.88;62.65;100976.38;5022906;27;102523;-66
2023/09/01 06:10:40;;;;;;;5.68;2.92;;;;;;;17.99;62.15;100989.94;5023806;27;97601;-65
2023/09/01 06:13:08;;;;;;;5.65;2.47;;;;;;;17.98;62.77;100992.72;5025942;27;98017;-66
2023/09/01 06:15:34;;;;;;;5.07;3.13;;;;;;;18.08;62.36;100985.81;5021196;27;98368;-66
2023/09/01 06:18:01;;;;;;;5.13;2.50;;;;;;;18.14;61.93;100988.97;5022996;27;99456;-64
2023/09/01 06:20:28;;;;;;;7.78;2.83;;;;;;;18.00;62.33;100991.66;5021256;27;97056;-65
2023/09/01 06:22:55;;;;;;;5.50;2.63;;;;;;;18.44;61.07;100990.66;5025697;27;97170;-66
2023/09/01 06:25:22;;;;;;;5.70;2.72;;;;;;;18.39;61.14;100993.63;5020977;27;100937;-65
2023/09/01 06:27:49;;;;;;;6.28;2.63;;;;;;;18.40;61.11;100990.00;5023929;27;99135;-65
2023/09/01 06:30:17;;;;;;;6.35;2.15;;;;;;;18.28;61.74;100990.78;5023182;27;96933;-65
2023/09/01 06:32:43;;;;;;;4.53;3.05;;;;;;;18.37;61.63;100995.56;5023963;27;97187;-65
2023/09/01 06:35:10;;;;;;;7.97;2.95;;;;;;;18.24;61.99;101002.66;5024408;27;98932;-64
2023/09/01 06:37:36;;;;;;;8.07;2.78;;;;;;;18.61;60.89;101001.16;5022167;27;98780;-64
2023/09/01 06:40:03;;;;;;;7.22;3.05;;;;;;;18.86;60.21;101001.28;5023768;27;98657;-64
2023/09/01 06:42:30;;;;;;;5.60;2.58;;;;;;;18.91;60.58;100996.47;5023557;27;98733;-63
2023/09/01 06:44:56;;;;;;;7.43;2.80;;;;;;;19.25;59.19;101000.44;5020444;27;99352;-66
2023/09/01 06:47:24;;;;;;;7.45;2.60;;;;;;;18.84;60.04;100995.16;5022479;27;99196;-65
2023/09/01 06:49:50;;;;;;;3.47;2.38;;;;;;;19.14;59.93;100999.44;5020969;27;98613;-65
2023/09/01 06:52:17;;;;;;;7.82;2.80;;;;;;;19.36;59.94;100997.88;5019542;27;96864;-66
2023/09/01 06:54:44;;;;;;;5.68;3.08;;;;;;;19.60;58.87;100994.53;5024060;27;98888;-66
2023/09/01 06:57:10;;;;;;;10.75;2.80;;;;;;;19.90;58.04;100998.63;5025875;27;97717;-65
2023/09/01 06:59:37;;;;;;;4.20;2.65;;;;;;;19.66;58.90;101004.84;5028250;27;98991;-66
2023/09/01 07:02:04;;;;;;;5.15;2.65;;;;;;;19.97;57.78;101007.09;5018778;27;96783;-66
2023/09/01 07:04:31;;;;;;;8.02;2.70;;;;;;;20.10;57.33;101007.06;5026406;27;100220;-66
2023/09/01 07:06:58;;;;;;;3.05;2.50;;;;;;;19.61;58.96;101006.97;5027979;27;99152;-66
2023/09/01 07:09:24;;;;;;;5.63;2.97;;;;;;;20.05;57.99;101003.88;5020358;27;96813;-64
2023/09/01 07:11:51;;;;;;;3.72;2.67;;;;;;;20.14;57.87;101001.41;5015596;27;102034;-65
2023/09/01 07:14:17;;;;;;;2.78;2.40;;;;;;;20.24;57.60;101005.13;5022348;27;101826;-65
2023/09/01 07:16:44;;;;;;;5.88;2.78;;;;;;;20.22;57.41;101004.38;5021229;27;99124;-67
2023/09/01 07:19:10;;;;;;;7.63;3.13;;;;;;;20.67;56.47;101004.75;5021906;27;98263;-66
2023/09/01 07:21:38;;;;;;;15.52;6.55;;;;;;;20.91;55.82;101007.44;5015838;27;98100;-65
2023/09/01 07:24:05;;;;;;;10.73;2.47;;;;;;;21.12;54.96;101007.69;5014594;27;98944;-65
2023/09/01 07:26:31;;;;;;;6.03;2.85;;;;;;;21.38;54.94;101011.97;5013225;27;99215;-63
2023/09/01 07:28:58;;;;;;;9.20;2.83;;;;;;;21.71;54.46;101014.75;5016035;27;96838;-65
2023/09/01 07:31:24;;;;;;;7.70;2.58;;;;;;;22.03;52.63;101028.41;5022222;27;97532;-64
2023/09/01 07:33:51;;;;;;;5.88;2.75;;;;;;;22.03;52.60;101025.72;5022220;27;101288;-64
2023/09/01 07:36:19;;;;;;;6.82;2.70;;;;;;;21.62;53.70;101023.50;5018163;27;98195;-65
2023/09/01 07:38:48;;;;;;;4.75;2.60;;;;;;;21.68;52.72;101028.41;5029819;27;96802;-65
2023/09/01 07:41:16;;;;;;;6.57;2.40;;;;;;;21.63;53.61;101027.94;5024066;27;96822;-64
2023/09/01 07:43:42;;;;;;;7.75;3.33;;;;;;;21.53;52.84;101031.44;5029461;27;98163;-64
2023/09/01 07:46:09;;;;;;;6.80;2.58;;;;;;;21.70;53.29;101034.53;5022689;27;98780;-65
2023/09/01 07:48:35;;;;;;;4.88;3.00;;;;;;;21.55;53.63;101035.72;5026788;27;96798;-64
2023/09/01 07:51:02;;;;;;;5.97;2.60;;;;;;;21.71;53.18;101027.34;5023410;27;96977;-64
2023/09/01 07:53:29;;;;;;;7.00;2.65;;;;;;;21.81;53.45;101031.00;5023951;27;98841;-65
2023/09/01 07:55:57;;;;;;;10.98;3.65;;;;;;;21.46;53.69;101029.19;5022878;27;103581;-65
2023/09/01 07:58:24;;;;;;;7.43;3.22;;;;;;;21.70;52.97;101029.16;5023153;27;96802;-65
2023/09/01 08:00:55;;;;;;;13.68;3.30;;;;;;;21.82;52.80;101030.91;5016670;27;98290;-65
2023/09/01 08:03:21;;;;;;;6.60;3.75;;;;;;;21.71;52.88;101030.88;5013622;27;98898;-64
2023/09/01 08:05:48;;;;;;;6.53;3.22;;;;;;;21.97;52.21;101028.03;5021762;27;99282;-65
2023/09/01 08:08:14;;;;;;;8.73;3.10;;;;;;;22.25;51.63;101032.94;5024012;27;98014;-65
2023/09/01 08:10:41;;;;;;;6.60;2.55;;;;;;;22.34;51.02;101029.50;5024145;27;96914;-65
2023/09/01 08:13:09;;;;;;;8.75;3.08;;;;;;;22.46;50.71;101033.03;5018914;27;99694;-63
2023/09/01 08:15:35;;;;;;;9.52;2.92;;;;;;;22.31;50.95;101034.28;5023340;27;98832;-64
2023/09/01 08:18:02;;;;;;;8.68;3.03;;;;;;;22.50;50.45;101032.69;5021411;27;96946;-64
2023/09/01 08:20:29;;;;;;;9.38;2.47;;;;;;;22.31;50.44;101037.84;5024560;27;98910;-65
2023/09/01 08:22:55;;;;;;;6.70;2.40;;;;;;;22.40;51.02;101026.31;5025233;27;98992;-64
2023/09/01 08:25:22;;;;;;;6.25;2.53;;;;;;;22.35;50.66;101036.59;5022924;27;99179;-64
2023/09/01 08:27:48;;;;;;;8.00;2.38;;;;;;;22.86;49.83;101030.69;5024548;27;97230;-64
2023/09/01 08:30:16;;;;;;;4.93;2.35;;;;;;;22.62;49.45;101038.91;5021618;27;97620;-63
2023/09/01 08:32:43;;;;;;;5.22;2.80;;;;;;;22.26;50.71;101048.09;5020728;27;99183;-64
2023/09/01 08:35:11;;;;;;;5.90;2.40;;;;;;;22.28;50.21;101046.16;5020410;27;98897;-65
2023/09/01 08:37:38;;;;;;;7.65;2.40;;;;;;;21.94;51.18;101038.97;5023490;27;98211;-65
2023/09/01 08:40:06;;;;;;;5.85;2.17;;;;;;;22.00;51.03;101043.91;5021691;27;96771;-66
2023/09/01 08:42:34;;;;;;;9.77;2.88;;;;;;;21.96;51.03;101046.00;5022396;27;99415;-64
2023/09/01 08:45:01;;;;;;;5.85;1.85;;;;;;;22.01;50.95;101043.78;5017746;27;99499;-65
2023/09/01 08:47:33;;;;;;;5.60;2.45;;;;;;;22.22;50.25;101047.50;5014906;27;97369;-65
2023/09/01 08:50:00;;;;;;;6.85;1.77;;;;;;;22.28;50.31;101040.75;5020552;27;96802;-65
2023/09/01 08:52:27;;;;;;;7.70;2.13;;;;;;;22.40;49.18;101039.78;5019270;27;101614;-64
2023/09/01 08:54:54;;;;;;;7.30;2.50;;;;;;;22.62;48.20;101047.84;5023358;27;99154;-64
2023/09/01 08:57:21;;;;;;;3.53;1.83;;;;;;;22.70;48.77;101054.47;5023116;27;97125;-64
2023/09/01 08:59:48;;;;;;;6.57;2.15;;;;;;;22.90;47.57;101053.72;5028030;27;97019;-65
2023/09/01 09:02:14;;;;;;;7.00;2.35;;;;;;;22.89;47.26;101058.25;5024826;27;99721;-64
2023/09/01 09:04:42;;;;;;;4.78;1.63;;;;;;;23.00;46.05;101044.75;5021664;27;99396;-65
2023/09/01 09:07:13;;;;;;;6.32;1.73;;;;;;;23.21;46.48;101052.88;5023188;27;96927;-65
2023/09/01 09:09:52;;;;;;;3.90;1.60;;;;;;;23.38;46.65;101044.22;5025297;27;97099;-65
2023/09/01 09:12:19;;;;;;;7.43;1.95;;;;;;;23.04;46.52;101045.31;5024321;27;101681;-65
2023/09/01 09:14:52;;;;;;;11.60;2.05;;;;;;;22.85;44.60;101047.81;5019439;27;100935;-65
2023/09/01 09:17:21;;;;;;;3.47;1.70;;;;;;;22.92;44.15;101052.59;5026957;27;97962;-65
2023/09/01 09:19:59;;;;;;;6.05;1.88;;;;;;;22.71;43.77;101048.09;5018443;27;97089;-64
2023/09/01 09:22:26;;;;;;;4.57;1.65;;;;;;;23.22;44.34;101041.13;5025573;27;99137;-64
2023/09/01 09:24:52;;;;;;;9.85;1.83;;;;;;;23.75;42.94;101049.25;5019661;27;98869;-64
2023/09/01 09:27:20;;;;;;;8.10;1.70;;;;;;;23.52;42.82;101050.31;5025316;27;97149;-66
2023/09/01 09:29:48;;;;;;;8.05;2.10;;;;;;;23.57;42.45;101054.34;5019631;27;97174;-65
2023/09/01 09:32:19;;;;;;;8.30;1.67;;;;;;;23.51;42.51;101049.47;5027011;27;98764;-65
2023/09/01 09:35:05;;;;;;;6.00;1.77;;;;;;;23.39;43.80;101037.84;5024642;27;99273;-64
2023/09/01 09:37:32;;;;;;;5.57;1.92;;;;;;;23.31;43.13;101043.03;5021751;27;97406;-65
2023/09/01 09:40:13;;;;;;;6.03;2.10;;;;;;;23.07;44.20;101052.31;5025615;27;96998;-65
2023/09/01 09:42:41;;;;;;;4.68;1.90;;;;;;;23.10;44.59;101057.47;5023940;27;99541;-65
2023/09/01 09:45:22;;;;;;;4.32;1.77;;;;;;;23.65;42.72;101056.38;5015908;27;101663;-65
2023/09/01 09:47:50;;;;;;;8.40;1.85;;;;;;;23.74;42.88;101050.22;5024301;27;97440;-65
2023/09/01 09:50:18;;;;;;;4.30;1.85;;;;;;;24.12;42.51;101055.00;5024333;27;96831;-65
2023/09/01 09:52:49;;;;;;;9.00;2.20;;;;;;;24.34;42.11;101048.59;5022438;27;100069;-65
2023/09/01 09:55:23;;;;;;;9.20;1.95;;;;;;;24.16;41.47;101056.44;5023973;27;100668;-65
2023/09/01 09:57:52;;;;;;;4.30;1.85;;;;;;;23.57;42.46;101053.47;5024661;27;97866;-65
2023/09/01 10:00:21;;;;;;;4.57;1.58;;;;;;;23.25;43.18;101048.06;5025573;27;97516;-65
2023/09/01 10:02:51;;;;;;;3.72;1.70;;;;;;;23.31;43.14;101053.81;5017223;27;99095;-67
2023/09/01 10:05:22;;;;;;;6.53;1.67;;;;;;;23.47;42.83;101053.41;5014316;27;98064;-65
2023/09/01 10:07:49;;;;;;;6.28;1.85;;;;;;;23.10;43.93;101049.38;5023686;27;98045;-64
2023/09/01 10:10:15;;;;;;;9.63;1.92;;;;;;;23.43;43.31;101057.34;5021368;27;97237;-64
2023/09/01 10:12:42;;;;;;;4.00;1.60;;;;;;;23.02;43.90;101052.72;5026991;27;99038;-64
2023/09/01 10:15:10;;;;;;;4.95;2.05;;;;;;;23.07;42.94;101055.88;5025434;27;98159;-64
2023/09/01 10:17:38;;;;;;;3.83;1.85;;;;;;;22.87;43.75;101059.34;5021381;27;97589;-64
2023/09/01 10:20:06;;;;;;;4.13;1.90;;;;;;;23.27;42.92;101052.38;5023789;27;97371;-64
2023/09/01 10:22:38;;;;;;;6.78;1.90;;;;;;;23.65;42.72;101053.69;5026187;27;98933;-64
2023/09/01 10:25:12;;;;;;;2.92;1.60;;;;;;;24.56;40.59;101043.00;5023759;27;99011;-65
2023/09/01 10:27:39;;;;;;;6.65;1.80;;;;;;;24.60;40.46;101055.25;5023006;27;97229;-64
2023/09/01 10:30:24;;;;;;;7.35;1.55;;;;;;;24.65;39.90;101058.38;5026367;27;96934;-64
2023/09/01 10:32:51;;;;;;;3.83;1.60;;;;;;;24.73;39.27;101047.75;5024254;27;98203;-64
2023/09/01 10:35:36;;;;;;;5.80;2.00;;;;;;;24.55;39.87;101062.88;5020615;27;99272;-64
2023/09/01 10:38:18;;;;;;;5.00;2.03;;;;;;;24.36;39.75;101060.09;5026769;27;97105;-65
2023/09/01 10:40:47;;;;;;;6.60;2.08;;;;;;;24.28;39.58;101054.56;5017803;27;97413;-65
2023/09/01 10:43:15;;;;;;;6.30;1.75;;;;;;;24.17;40.01;101064.41;5022898;27;99762;-64
2023/09/01 10:45:41;;;;;;;5.10;2.00;;;;;;;24.04;40.42;101057.50;5022137;27;98735;-64
2023/09/01 10:48:12;;;;;;;7.43;1.92;;;;;;;24.25;40.43;101068.31;5023665;27;97301;-64
2023/09/01 10:50:42;;;;;;;3.65;1.73;;;;;;;24.77;39.69;101054.59;5023966;27;99551;-65
2023/09/01 10:53:30;;;;;;;6.47;2.20;;;;;;;24.93;38.83;101062.19;5021774;27;98619;-65
2023/09/01 10:56:11;;;;;;;3.67;1.70;;;;;;;24.57;38.82;101055.50;5023630;27;98822;-65
2023/09/01 10:58:45;;;;;;;4.47;1.80;;;;;;;24.42;39.08;101051.47;5020488;27;97009;-65
2023/09/01 11:01:35;;;;;;;7.30;2.00;;;;;;;24.69;39.02;101059.81;5025230;27;97579;-65
2023/09/01 11:04:30;;;;;;;4.25;1.50;;;;;;;24.62;39.75;101045.13;5015980;27;98838;-65
2023/09/01 11:07:03;;;;;;;5.45;2.20;;;;;;;24.87;38.71;101046.50;5025943;27;98683;-65
2023/09/01 11:12:32;;;;;;;8.43;2.30;;;;;;;24.68;38.18;101057.28;5130793;27;96592;-64
2023/09/01 11:15:01;;;;;;;5.75;2.25;;;;;;;24.29;38.13;101049.00;5110254;27;98614;-64
2023/09/01 11:17:38;;;;;;;6.45;2.38;;;;;;;24.43;38.32;101042.38;5113577;27;99948;-64
2023/09/01 11:20:08;;;;;;;4.65;1.73;;;;;;;24.75;38.43;101050.28;5114721;27;101231;-65
2023/09/01 11:22:36;;;;;;;4.15;1.67;;;;;;;24.68;38.71;101046.47;5110464;27;96743;-64
2023/09/01 11:25:03;;;;;;;7.40;2.03;;;;;;;25.03;38.81;101049.53;5109517;27;96916;-65
2023/09/01 11:27:31;;;;;;;3.92;2.15;;;;;;;24.89;38.44;101058.03;5110397;27;98224;-65
2023/09/01 11:30:02;;;;;;;3.90;1.70;;;;;;;24.60;38.24;101060.66;5111517;27;99377;-67
2023/09/01 11:32:28;;;;;;;4.15;1.42;;;;;;;24.79;37.84;101060.72;5110757;27;96978;-65